createdAt,value
2018-09-27T00:00:45.060Z,10.30
2018-09-27T00:03:13.313Z,10.30
2018-09-27T00:05:41.496Z,10.20
2018-09-27T00:08:09.784Z,10.20
2018-09-27T00:10:38.048Z,10.10
2018-09-27T00:13:06.268Z,10.00
2018-09-27T00:15:34.482Z,10.00
2018-09-27T00:18:02.692Z,10.00
2018-09-27T00:20:30.926Z,10.10
2018-09-27T00:22:59.168Z,10.00
2018-09-27T00:25:27.383Z,10.00
2018-09-27T00:27:55.596Z,10.00
2018-09-27T00:30:23.786Z,10.00
2018-09-27T00:32:52.025Z,10.00
2018-09-27T00:35:20.267Z,10.00
2018-09-27T00:37:48.515Z,10.00
2018-09-27T00:40:16.799Z,10.00
2018-09-27T00:42:45.041Z,10.00
2018-09-27T00:45:13.284Z,10.00
2018-09-27T00:47:41.477Z,9.90
2018-09-27T00:50:09.662Z,9.80
2018-09-27T00:52:37.966Z,9.70
2018-09-27T00:55:06.356Z,9.70
2018-09-27T00:57:34.805Z,9.60
2018-09-27T01:00:03.745Z,9.60
2018-09-27T01:02:32.356Z,9.60
2018-09-27T01:05:00.552Z,9.60
2018-09-27T01:07:28.868Z,9.60
2018-09-27T01:09:57.102Z,9.60
2018-09-27T01:12:25.301Z,9.60
2018-09-27T01:14:53.524Z,9.50
2018-09-27T01:17:21.759Z,9.60
2018-09-27T01:19:49.969Z,9.60
2018-09-27T01:22:18.127Z,9.50
2018-09-27T01:24:46.360Z,9.50
2018-09-27T01:27:14.588Z,9.50
2018-09-27T01:29:42.795Z,9.40
2018-09-27T01:32:10.961Z,9.40
2018-09-27T01:34:39.181Z,9.40
2018-09-27T01:37:07.345Z,9.40
2018-09-27T01:39:35.553Z,9.40
2018-09-27T01:42:03.771Z,9.30
2018-09-27T01:44:31.979Z,9.30
2018-09-27T01:47:00.198Z,9.30
2018-09-27T01:49:28.360Z,9.20
2018-09-27T01:51:56.565Z,9.20
2018-09-27T01:54:24.837Z,9.20
2018-09-27T01:56:53.141Z,9.20
2018-09-27T01:59:21.300Z,9.20
2018-09-27T02:01:49.482Z,9.20
2018-09-27T02:04:17.727Z,9.30
2018-09-27T02:06:45.905Z,9.30
2018-09-27T02:09:14.117Z,9.20
2018-09-27T02:11:42.327Z,9.20
2018-09-27T02:14:10.551Z,9.20
2018-09-27T02:16:38.793Z,9.20
2018-09-27T02:19:06.969Z,9.20
2018-09-27T02:21:35.206Z,9.20
2018-09-27T02:24:03.372Z,9.20
2018-09-27T02:26:31.544Z,9.30
2018-09-27T02:28:59.769Z,9.20
2018-09-27T02:31:28.012Z,9.20
2018-09-27T02:33:56.239Z,9.20
2018-09-27T02:36:24.462Z,9.20
2018-09-27T02:38:52.650Z,9.20
2018-09-27T02:41:20.849Z,9.20
2018-09-27T02:43:49.049Z,9.20
2018-09-27T02:46:17.303Z,9.20
2018-09-27T02:48:45.525Z,9.10
2018-09-27T02:51:13.719Z,9.10
2018-09-27T02:53:41.896Z,9.20
2018-09-27T02:56:10.160Z,9.10
2018-09-27T02:58:38.345Z,9.10
2018-09-27T03:01:06.636Z,9.00
2018-09-27T03:03:34.849Z,9.00
2018-09-27T03:06:03.054Z,9.00
2018-09-27T03:08:31.264Z,9.00
2018-09-27T03:10:59.476Z,8.90
2018-09-27T03:13:27.697Z,8.90
2018-09-27T03:15:56.008Z,8.90
2018-09-27T03:18:24.178Z,8.90
2018-09-27T03:20:52.441Z,8.90
2018-09-27T03:23:20.599Z,9.00
2018-09-27T03:25:48.841Z,9.00
2018-09-27T03:28:17.063Z,9.10
2018-09-27T03:30:45.251Z,9.10
2018-09-27T03:33:13.506Z,9.10
2018-09-27T03:35:41.741Z,9.00
2018-09-27T03:38:09.924Z,9.00
2018-09-27T03:40:38.218Z,9.00
2018-09-27T03:43:06.413Z,9.00
2018-09-27T03:45:34.623Z,9.00
2018-09-27T03:48:02.785Z,9.00
2018-09-27T03:50:31.029Z,9.00
2018-09-27T03:52:59.407Z,9.00
2018-09-27T03:55:27.577Z,9.00
2018-09-27T03:57:55.916Z,8.90
2018-09-27T04:00:24.168Z,9.00
2018-09-27T04:02:52.352Z,8.90
2018-09-27T04:05:20.538Z,8.80
2018-09-27T04:07:48.768Z,8.80
2018-09-27T04:10:17.139Z,8.80
2018-09-27T04:12:45.388Z,8.80
2018-09-27T04:15:13.982Z,8.80
2018-09-27T04:17:42.165Z,8.90
2018-09-27T04:20:10.357Z,8.80
2018-09-27T04:22:38.553Z,8.80
2018-09-27T04:25:06.969Z,8.80
2018-09-27T04:27:35.229Z,8.80
2018-09-27T04:30:03.501Z,8.80
2018-09-27T04:32:31.757Z,8.70
2018-09-27T04:34:59.953Z,8.70
2018-09-27T04:37:28.285Z,8.70
2018-09-27T04:39:56.554Z,8.80
2018-09-27T04:42:24.880Z,8.80
2018-09-27T04:44:53.108Z,8.80
2018-09-27T04:47:21.472Z,8.80
2018-09-27T04:49:49.696Z,8.70
2018-09-27T04:52:17.948Z,8.70
2018-09-27T04:54:46.268Z,8.70
2018-09-27T04:57:14.685Z,8.70
2018-09-27T04:59:43.376Z,8.70
2018-09-27T05:02:11.584Z,8.70
2018-09-27T05:04:39.872Z,8.60
2018-09-27T05:07:08.087Z,8.60
2018-09-27T05:09:36.353Z,8.70
2018-09-27T05:12:04.764Z,8.60
2018-09-27T05:14:33.033Z,8.60
2018-09-27T05:17:01.245Z,8.70
2018-09-27T05:19:29.517Z,8.60
2018-09-27T05:21:57.770Z,8.50
2018-09-27T05:24:26.024Z,8.50
2018-09-27T05:26:54.245Z,8.50
2018-09-27T05:29:22.518Z,8.50
2018-09-27T05:31:50.805Z,8.50
2018-09-27T05:34:19.300Z,8.60
2018-09-27T05:36:47.633Z,8.50
2018-09-27T05:39:15.968Z,8.50
2018-09-27T05:41:44.198Z,8.50
2018-09-27T05:44:12.383Z,8.60
2018-09-27T05:46:40.642Z,8.60
2018-09-27T05:49:08.852Z,8.60
2018-09-27T05:51:37.371Z,8.60
2018-09-27T05:54:06.130Z,8.60
2018-09-27T05:56:34.337Z,8.70
2018-09-27T05:59:02.647Z,8.80
2018-09-27T06:01:30.933Z,8.80
2018-09-27T06:03:59.173Z,8.80
2018-09-27T06:06:27.638Z,8.80
2018-09-27T06:08:56.077Z,8.80
2018-09-27T06:11:24.296Z,8.90
2018-09-27T06:13:52.853Z,8.90
2018-09-27T06:16:21.235Z,9.00
2018-09-27T06:18:49.411Z,9.10
2018-09-27T06:21:17.747Z,9.10
2018-09-27T06:23:46.027Z,9.20
2018-09-27T06:26:14.879Z,9.20
2018-09-27T06:28:43.229Z,9.20
2018-09-27T06:31:11.445Z,9.30
2018-09-27T06:33:40.021Z,9.40
2018-09-27T06:36:08.349Z,9.50
2018-09-27T06:38:36.765Z,9.50
2018-09-27T06:41:04.991Z,9.60
2018-09-27T06:43:33.223Z,9.60
2018-09-27T06:46:01.663Z,9.80
2018-09-27T06:48:30.042Z,9.80
2018-09-27T06:50:58.722Z,9.90
2018-09-27T06:53:26.953Z,10.00
2018-09-27T06:55:56.506Z,10.10
2018-09-27T06:58:24.791Z,10.10
2018-09-27T07:00:53.511Z,10.20
2018-09-27T07:03:21.901Z,10.30
2018-09-27T07:05:50.116Z,10.30
2018-09-27T07:08:19.257Z,10.40
2018-09-27T07:10:47.792Z,10.50
2018-09-27T07:13:16.001Z,10.60
2018-09-27T07:15:44.584Z,10.60
2018-09-27T07:18:13.723Z,10.60
2018-09-27T07:20:42.185Z,10.70
2018-09-27T07:23:10.572Z,10.80
2018-09-27T07:25:38.851Z,10.80
2018-09-27T07:28:07.078Z,10.90
2018-09-27T07:30:36.011Z,11.00
2018-09-27T07:33:04.384Z,11.10
2018-09-27T07:35:32.696Z,11.20
2018-09-27T07:38:01.245Z,11.20
2018-09-27T07:40:29.484Z,11.30
2018-09-27T07:42:57.660Z,11.40
2018-09-27T07:45:25.915Z,11.50
2018-09-27T07:47:54.388Z,11.60
2018-09-27T07:50:22.598Z,11.70
2018-09-27T07:52:51.162Z,11.80
2018-09-27T07:55:19.368Z,11.80
2018-09-27T07:57:47.643Z,11.90
2018-09-27T08:00:16.308Z,12.00
2018-09-27T08:02:44.638Z,12.10
2018-09-27T08:05:12.809Z,12.30
2018-09-27T08:07:41.958Z,12.30
2018-09-27T08:10:10.138Z,12.40
2018-09-27T08:12:38.364Z,12.50
2018-09-27T08:15:06.799Z,12.60
2018-09-27T08:17:35.051Z,12.70
2018-09-27T08:20:04.589Z,12.70
2018-09-27T08:22:33.020Z,12.80
2018-09-27T08:25:01.225Z,12.90
2018-09-27T08:27:29.498Z,13.00
2018-09-27T08:29:57.694Z,13.20
2018-09-27T08:32:26.166Z,13.30
2018-09-27T08:34:54.514Z,13.50
2018-09-27T08:37:22.837Z,13.50
2018-09-27T08:39:51.078Z,13.60
2018-09-27T08:42:19.293Z,13.60
2018-09-27T08:44:47.789Z,13.60
2018-09-27T08:47:15.902Z,13.70
2018-09-27T08:49:44.226Z,13.90
2018-09-27T08:52:12.956Z,13.90
2018-09-27T08:54:41.280Z,13.90
2018-09-27T08:57:09.556Z,14.10
2018-09-27T08:59:37.855Z,14.20
2018-09-27T09:02:06.170Z,14.20
2018-09-27T09:04:34.424Z,14.20
2018-09-27T09:07:03.141Z,14.30
2018-09-27T09:09:31.674Z,14.40
2018-09-27T09:11:59.936Z,14.40
2018-09-27T09:14:28.180Z,14.40
2018-09-27T09:16:56.408Z,14.70
2018-09-27T09:19:25.030Z,14.70
2018-09-27T09:21:53.177Z,14.80
2018-09-27T09:24:21.536Z,15.10
2018-09-27T09:26:49.734Z,15.20
2018-09-27T09:29:18.170Z,15.30
2018-09-27T09:31:46.633Z,15.30
2018-09-27T09:34:14.878Z,15.50
2018-09-27T09:36:43.120Z,15.60
2018-09-27T09:39:11.473Z,15.70
2018-09-27T09:41:39.655Z,15.80
2018-09-27T09:44:08.150Z,15.90
2018-09-27T09:46:36.370Z,15.80
2018-09-27T09:49:04.817Z,16.00
2018-09-27T09:51:33.067Z,16.00
2018-09-27T09:54:01.272Z,16.10
2018-09-27T09:56:29.528Z,16.20
2018-09-27T09:58:57.902Z,16.30
2018-09-27T10:01:26.150Z,16.40
2018-09-27T10:03:54.371Z,16.40
2018-09-27T10:06:22.601Z,16.50
2018-09-27T10:08:50.828Z,16.60
2018-09-27T10:11:19.033Z,16.90
2018-09-27T10:13:47.269Z,16.80
2018-09-27T10:16:15.629Z,16.80
2018-09-27T10:18:43.854Z,17.00
2018-09-27T10:21:12.424Z,17.10
2018-09-27T10:23:40.725Z,17.10
2018-09-27T10:26:08.934Z,17.20
2018-09-27T10:28:37.165Z,17.40
2018-09-27T10:31:06.533Z,17.60
2018-09-27T10:33:34.705Z,17.60
2018-09-27T10:36:02.917Z,17.90
2018-09-27T10:38:31.168Z,18.00
2018-09-27T10:40:59.376Z,17.90
2018-09-27T10:43:27.597Z,18.10
2018-09-27T10:45:56.830Z,18.10
2018-09-27T10:48:25.158Z,18.20
2018-09-27T10:50:53.352Z,18.40
2018-09-27T10:53:21.615Z,18.40
2018-09-27T10:55:49.938Z,18.40
2018-09-27T10:58:18.173Z,18.60
2018-09-27T11:00:46.830Z,18.90
2018-09-27T11:03:15.141Z,19.00
2018-09-27T11:05:43.588Z,19.00
2018-09-27T11:08:12.289Z,19.00
2018-09-27T11:10:41.520Z,19.20
2018-09-27T11:13:09.809Z,19.10
2018-09-27T11:15:38.274Z,19.20
2018-09-27T11:18:06.620Z,19.30
2018-09-27T11:20:34.836Z,19.50
2018-09-27T11:23:03.354Z,19.50
2018-09-27T11:25:31.585Z,19.60
2018-09-27T11:27:59.768Z,19.60
2018-09-27T11:30:30.722Z,19.50
2018-09-27T11:32:59.006Z,19.70
2018-09-27T11:35:27.177Z,19.80
2018-09-27T11:37:55.461Z,19.90
2018-09-27T11:40:23.687Z,20.10
2018-09-27T11:42:51.971Z,20.20
2018-09-27T11:45:20.454Z,20.20
2018-09-27T11:47:48.703Z,20.40
2018-09-27T11:50:17.330Z,20.50
2018-09-27T11:52:45.609Z,20.60
2018-09-27T11:55:13.926Z,20.80
2018-09-27T11:57:42.159Z,20.80
2018-09-27T12:00:10.501Z,20.90
2018-09-27T12:02:38.839Z,21.00
2018-09-27T12:05:07.084Z,21.00
2018-09-27T12:07:35.398Z,21.20
2018-09-27T12:10:03.732Z,21.00
2018-09-27T12:12:32.069Z,21.10
2018-09-27T12:15:00.297Z,21.10
2018-09-27T12:17:28.608Z,21.20
2018-09-27T12:19:56.906Z,21.10
2018-09-27T12:22:25.243Z,21.10
2018-09-27T12:24:53.429Z,21.40
2018-09-27T12:27:21.833Z,21.50
2018-09-27T12:29:50.260Z,21.60
2018-09-27T12:32:18.481Z,21.80
2018-09-27T12:34:46.741Z,21.80
2018-09-27T12:37:14.967Z,21.80
2018-09-27T12:39:43.418Z,21.70
2018-09-27T12:42:11.663Z,21.50
2018-09-27T12:44:39.979Z,21.60
2018-09-27T12:47:08.277Z,21.80
2018-09-27T12:49:36.614Z,21.90
2018-09-27T12:52:05.167Z,21.70
2018-09-27T12:54:33.221Z,21.90
2018-09-27T12:57:01.585Z,21.80
2018-09-27T12:59:29.705Z,21.90
2018-09-27T13:01:58.140Z,22.10
2018-09-27T13:04:26.289Z,22.00
2018-09-27T13:06:54.578Z,22.20
2018-09-27T13:09:23.056Z,22.20
2018-09-27T13:11:51.132Z,22.30
2018-09-27T13:14:19.343Z,22.40
2018-09-27T13:16:47.625Z,22.50
2018-09-27T13:19:15.872Z,22.40
2018-09-27T13:21:44.073Z,22.40
2018-09-27T13:24:12.261Z,22.50
2018-09-27T13:26:40.643Z,22.50
2018-09-27T13:29:08.898Z,22.70
2018-09-27T13:31:37.386Z,22.60
2018-09-27T13:34:05.678Z,22.70
2018-09-27T13:36:33.804Z,22.80
2018-09-27T13:39:02.113Z,22.90
2018-09-27T13:41:30.399Z,23.00
2018-09-27T13:43:58.662Z,22.80
2018-09-27T13:46:27.037Z,22.60
2018-09-27T13:48:55.296Z,22.70
2018-09-27T13:51:23.643Z,22.60
2018-09-27T13:53:51.884Z,22.70
2018-09-27T13:56:20.143Z,22.70
2018-09-27T13:58:48.340Z,22.70
2018-09-27T14:01:16.598Z,22.80
2018-09-27T14:03:44.846Z,22.80
2018-09-27T14:06:13.142Z,22.90
2018-09-27T14:08:41.361Z,23.20
2018-09-27T14:11:09.623Z,23.10
2018-09-27T14:13:37.882Z,23.20
2018-09-27T14:16:06.192Z,23.40
2018-09-27T14:18:34.396Z,23.40
2018-09-27T14:21:02.707Z,23.20
2018-09-27T14:23:31.097Z,23.30
2018-09-27T14:25:59.485Z,23.30
2018-09-27T14:28:27.687Z,23.40
2018-09-27T14:30:55.984Z,23.40
2018-09-27T14:33:24.145Z,23.40
2018-09-27T14:35:52.330Z,23.30
2018-09-27T14:38:20.590Z,23.30
2018-09-27T14:40:48.821Z,23.30
2018-09-27T14:43:17.242Z,23.30
2018-09-27T14:45:45.448Z,23.30
2018-09-27T14:48:13.775Z,23.20
2018-09-27T14:50:42.053Z,23.20
2018-09-27T14:53:10.293Z,23.10
2018-09-27T14:55:38.548Z,23.10
2018-09-27T14:58:07.044Z,23.10
2018-09-27T15:00:35.363Z,23.30
2018-09-27T15:03:03.551Z,23.40
2018-09-27T15:05:31.812Z,23.20
2018-09-27T15:07:59.960Z,23.20
2018-09-27T15:10:28.340Z,23.10
2018-09-27T15:12:56.462Z,23.10
2018-09-27T15:15:24.752Z,23.10
2018-09-27T15:17:53.003Z,22.90
2018-09-27T15:20:21.210Z,22.90
2018-09-27T15:22:49.495Z,23.00
2018-09-27T15:25:17.774Z,22.90
2018-09-27T15:27:45.990Z,22.90
2018-09-27T15:30:14.376Z,22.90
2018-09-27T15:32:42.620Z,22.80
2018-09-27T15:35:10.858Z,22.90
2018-09-27T15:37:39.058Z,22.80
2018-09-27T15:40:07.394Z,22.70
2018-09-27T15:42:35.634Z,22.60
2018-09-27T15:45:03.896Z,22.50
2018-09-27T15:47:32.184Z,22.40
2018-09-27T15:50:00.414Z,22.40
2018-09-27T15:52:28.724Z,22.30
2018-09-27T15:54:56.996Z,22.30
2018-09-27T15:57:25.270Z,22.20
2018-09-27T15:59:53.460Z,22.10
2018-09-27T16:02:21.676Z,21.90
2018-09-27T16:04:49.903Z,21.90
2018-09-27T16:07:18.171Z,21.90
2018-09-27T16:09:46.349Z,21.90
2018-09-27T16:12:14.589Z,21.90
2018-09-27T16:14:42.886Z,21.90
2018-09-27T16:17:11.133Z,21.90
2018-09-27T16:19:39.339Z,21.90
2018-09-27T16:22:07.833Z,21.90
2018-09-27T16:24:35.926Z,21.80
2018-09-27T16:27:04.096Z,21.70
2018-09-27T16:29:32.378Z,21.80
2018-09-27T16:32:00.690Z,21.80
2018-09-27T16:34:29.006Z,21.70
2018-09-27T16:36:57.246Z,21.50
2018-09-27T16:39:25.517Z,21.50
2018-09-27T16:41:53.871Z,21.60
2018-09-27T16:44:22.162Z,21.30
2018-09-27T16:46:50.803Z,21.20
2018-09-27T16:49:19.093Z,21.10
2018-09-27T16:51:47.373Z,21.10
2018-09-27T16:54:15.713Z,21.00
2018-09-27T16:56:44.817Z,20.80
2018-09-27T16:59:13.619Z,20.80
2018-09-27T17:01:41.968Z,20.70
2018-09-27T17:04:10.155Z,20.50
2018-09-27T17:06:39.403Z,20.40
2018-09-27T17:09:09.008Z,20.40
2018-09-27T17:11:37.290Z,20.40
2018-09-27T17:14:05.606Z,20.20
2018-09-27T17:16:33.948Z,20.10
2018-09-27T17:19:02.238Z,19.90
2018-09-27T17:21:30.548Z,19.80
2018-09-27T17:23:59.188Z,19.60
2018-09-27T17:26:27.409Z,19.50
2018-09-27T17:28:55.682Z,19.40
2018-09-27T17:31:24.240Z,19.40
2018-09-27T17:33:52.477Z,19.30
2018-09-27T17:36:20.714Z,19.10
2018-09-27T17:38:48.899Z,19.00
2018-09-27T17:41:17.366Z,18.90
2018-09-27T17:43:45.731Z,18.90
2018-09-27T17:46:13.832Z,18.80
2018-09-27T17:48:42.082Z,18.80
2018-09-27T17:51:10.308Z,18.70
2018-09-27T17:53:38.627Z,18.40
2018-09-27T17:56:06.973Z,18.30
2018-09-27T17:58:35.393Z,18.10
2018-09-27T18:01:03.558Z,18.00
2018-09-27T18:03:31.996Z,17.90
2018-09-27T18:06:00.211Z,17.70
2018-09-27T18:08:28.424Z,17.60
2018-09-27T18:10:56.759Z,17.40
2018-09-27T18:13:25.080Z,17.20
2018-09-27T18:15:53.274Z,17.10
2018-09-27T18:18:21.525Z,17.00
2018-09-27T18:20:49.901Z,16.90
2018-09-27T18:23:18.649Z,16.70
2018-09-27T18:25:46.948Z,16.60
2018-09-27T18:28:15.412Z,16.50
2018-09-27T18:30:43.684Z,16.40
2018-09-27T18:33:11.908Z,16.30
2018-09-27T18:35:40.091Z,16.20
2018-09-27T18:38:08.546Z,16.10
2018-09-27T18:40:36.577Z,16.10
2018-09-27T18:43:04.853Z,15.90
2018-09-27T18:45:33.072Z,15.90
2018-09-27T18:48:01.334Z,15.80
2018-09-27T18:50:29.531Z,15.80
2018-09-27T18:52:57.806Z,15.70
2018-09-27T18:55:26.007Z,15.70
2018-09-27T18:57:54.217Z,15.60
2018-09-27T19:00:22.856Z,15.60
2018-09-27T19:02:51.086Z,15.60
2018-09-27T19:05:19.456Z,15.40
2018-09-27T19:07:47.677Z,15.40
2018-09-27T19:10:16.044Z,15.30
2018-09-27T19:12:44.412Z,15.30
2018-09-27T19:15:12.737Z,15.20
2018-09-27T19:17:40.975Z,15.20
2018-09-27T19:20:09.234Z,15.10
2018-09-27T19:22:37.569Z,15.10
2018-09-27T19:25:05.796Z,15.10
2018-09-27T19:27:34.082Z,15.00
2018-09-27T19:30:02.323Z,15.00
2018-09-27T19:32:31.052Z,15.00
2018-09-27T19:34:59.352Z,14.90
2018-09-27T19:37:27.531Z,14.80
2018-09-27T19:39:55.805Z,14.70
2018-09-27T19:42:24.119Z,14.70
2018-09-27T19:44:52.296Z,14.60
2018-09-27T19:47:20.660Z,14.50
2018-09-27T19:49:48.852Z,14.60
2018-09-27T19:52:17.095Z,14.60
2018-09-27T19:54:45.249Z,14.50
2018-09-27T19:57:13.470Z,14.50
2018-09-27T19:59:41.725Z,14.50
2018-09-27T20:02:09.968Z,14.60
2018-09-27T20:04:38.620Z,14.60
2018-09-27T20:07:06.799Z,14.70
2018-09-27T20:09:35.004Z,14.70
2018-09-27T20:12:03.367Z,14.50
2018-09-27T20:14:31.695Z,14.40
2018-09-27T20:16:59.996Z,14.30
2018-09-27T20:19:28.184Z,14.20
2018-09-27T20:21:56.517Z,14.20
2018-09-27T20:24:24.680Z,14.20
2018-09-27T20:26:52.879Z,14.10
2018-09-27T20:29:21.055Z,14.10
2018-09-27T20:31:49.380Z,14.00
2018-09-27T20:34:17.650Z,14.00
2018-09-27T20:36:46.057Z,14.10
2018-09-27T20:39:14.340Z,14.00
2018-09-27T20:41:42.575Z,13.90
2018-09-27T20:44:11.481Z,13.90
2018-09-27T20:46:39.678Z,13.90
2018-09-27T20:49:07.895Z,14.00
2018-09-27T20:51:36.172Z,14.10
2018-09-27T20:54:04.475Z,14.10
2018-09-27T20:56:32.691Z,13.90
2018-09-27T20:59:00.941Z,13.80
2018-09-27T21:01:29.212Z,13.70
2018-09-27T21:03:57.557Z,13.70
2018-09-27T21:06:26.121Z,13.70
2018-09-27T21:08:54.389Z,13.70
2018-09-27T21:11:22.576Z,13.60
2018-09-27T21:13:50.844Z,13.70
2018-09-27T21:16:19.069Z,13.80
2018-09-27T21:18:47.283Z,14.00
2018-09-27T21:21:15.480Z,14.00
2018-09-27T21:23:43.694Z,13.90
2018-09-27T21:26:11.933Z,13.80
2018-09-27T21:28:40.348Z,13.80
2018-09-27T21:31:08.545Z,13.80
2018-09-27T21:33:36.737Z,13.80
2018-09-27T21:36:05.094Z,13.80
2018-09-27T21:38:33.311Z,13.60
2018-09-27T21:41:01.496Z,13.50
2018-09-27T21:43:29.713Z,13.50
2018-09-27T21:45:57.992Z,13.50
2018-09-27T21:48:26.228Z,13.40
2018-09-27T21:50:54.555Z,13.30
2018-09-27T21:53:22.782Z,13.20
2018-09-27T21:55:51.027Z,13.20
2018-09-27T21:58:19.232Z,13.10
2018-09-27T22:00:50.714Z,13.00
2018-09-27T22:03:19.567Z,13.00
2018-09-27T22:05:47.757Z,12.90
2018-09-27T22:08:15.935Z,12.90
2018-09-27T22:10:44.278Z,12.80
2018-09-27T22:13:12.438Z,12.70
2018-09-27T22:15:40.645Z,12.70
2018-09-27T22:18:08.866Z,12.70
2018-09-27T22:20:37.314Z,12.60
2018-09-27T22:23:05.573Z,12.60
2018-09-27T22:25:33.801Z,12.50
2018-09-27T22:28:02.189Z,12.50
2018-09-27T22:30:30.447Z,12.40
2018-09-27T22:32:58.653Z,12.40
2018-09-27T22:35:26.957Z,12.40
2018-09-27T22:37:55.147Z,12.30
2018-09-27T22:40:23.579Z,12.30
2018-09-27T22:42:51.791Z,12.60
2018-09-27T22:45:20.029Z,12.60
2018-09-27T22:47:48.266Z,12.80
2018-09-27T22:50:16.474Z,12.80
2018-09-27T22:52:44.690Z,12.70
2018-09-27T22:55:12.935Z,12.70
2018-09-27T22:57:41.151Z,12.60
2018-09-27T23:00:09.388Z,12.50
2018-09-27T23:02:37.628Z,12.40
2018-09-27T23:05:05.829Z,12.40
2018-09-27T23:07:34.013Z,12.40
2018-09-27T23:10:02.224Z,12.40
2018-09-27T23:12:30.449Z,12.30
2018-09-27T23:14:58.675Z,12.20
2018-09-27T23:17:26.978Z,12.10
2018-09-27T23:19:55.134Z,12.10
2018-09-27T23:22:23.353Z,12.10
2018-09-27T23:24:51.692Z,12.10
2018-09-27T23:27:19.873Z,12.00
2018-09-27T23:29:48.553Z,12.00
2018-09-27T23:32:16.800Z,11.90
2018-09-27T23:34:44.990Z,11.90
2018-09-27T23:37:13.265Z,11.90
2018-09-27T23:39:41.546Z,11.90
2018-09-27T23:42:09.749Z,11.80
2018-09-27T23:44:38.007Z,11.80
2018-09-27T23:47:06.367Z,11.80
2018-09-27T23:49:34.592Z,11.70
2018-09-27T23:52:02.884Z,11.70
2018-09-27T23:54:31.156Z,11.60
2018-09-27T23:56:59.341Z,11.50
2018-09-27T23:59:27.569Z,11.70
